Latest Coastal Weather Observations for Port Fairy

IDV60701

Issued at 9:02 pm EDT Wednesday 7 December 2022 (issued every 10 minutes, with the page automatically refreshed every 10 minutes)

About coastal observations | Map of coastal stations | Coastal observations for VIC | Marine services | Other Formats
Station Details ID: 090175 Name: PORT FAIRY AWS Lat: -38.39 Lon: 142.23 Height: 10.0 m
Data from the previous 72 hours. | See also: Recent months at Port Fairy
Date/Time
EDT
Wind Sea
Height
m
Swell Vis
km
Cloud Weather Temp
°C
Press
MSL
hPa
Rain since
9am
mm
Dir  Spd
kts
Gust
kts
Height
m
Period
s
Dir
07/09:00pm SW 21 30 - - - - - - - 12.6 1011.1 1.8
07/08:30pm SW 23 30 - - - - - - - 12.5 1010.8 1.8
07/08:00pm SW 21 31 - - - - - - - 12.3 1010.5 1.8
07/07:30pm SSW 22 32 - - - - - - - 13.2 1010.1 1.6
07/07:17pm SW 22 34 - - - - - - - 13.5 1009.8 1.6
07/07:00pm SW 22 29 - - - - - - - 13.4 1009.4 1.6
07/06:30pm SW 22 29 - - - - - - - 14.5 1008.9 1.6
07/06:00pm SW 21 30 - - - - - - - 14.1 1008.2 1.6
07/05:42pm SW 23 34 - - - - - - - 13.8 1008.1 1.6
07/05:30pm SW 24 32 - - - - - - - 13.6 1007.9 1.6
07/05:08pm SW 21 32 - - - - - - - 12.6 1007.5 1.6
07/05:00pm SW 19 27 - - - - - - - 13.3 1007.5 1.6
07/04:35pm SW 21 31 - - - - - - - 13.3 1007.4 1.4
07/04:30pm SW 23 32 - - - - - - - 12.8 1007.4 1.4
07/04:23pm WSW 19 30 - - - - - - - 13.4 1007.3 1.2
07/04:00pm WSW 22 32 - - - - - - - 13.8 1007.2 1.2
07/03:30pm WSW 18 26 - - - - - - - 15.2 1006.8 1.2
07/03:00pm WSW 19 27 - - - - - - - 15.3 1006.8 0.0
07/02:30pm WSW 17 23 - - - - - - - 18.3 1006.7 0.0
07/02:00pm W 14 20 - - - - - - - 18.7 1006.9 0.0
07/01:30pm WSW 15 21 - - - - - - - 18.4 1007.1 0.0
07/01:00pm WSW 15 21 - - - - - - - 18.2 1007.0 0.0
07/12:30pm WSW 14 20 - - - - - - - 17.9 1007.0 0.0
07/12:00pm WSW 11 16 - - - - - - - 17.6 1007.0 0.0
07/11:30am WSW 10 15 - - - - - - - 17.1 1007.0 0.0
07/11:00am WSW 13 17 - - - - - - - 16.4 1006.9 0.0
07/10:30am WSW 10 14 - - - - - - - 17.7 1006.7 0.0
07/10:00am SW 9 13 - - - - - - - 17.1 1006.7 0.0
07/09:30am SW 10 17 - - - - - - - 15.5 1006.6 0.0
07/09:00am SW 12 16 - - - - - - - 14.6 1006.6 0.0
07/08:30am SSW 12 15 - - - - - - - 14.2 1006.1 0.0
07/08:00am SSW 12 16 - - - - - - - 13.9 1005.8 0.0
07/07:30am WSW 5 8 - - - - - - - 14.3 1005.3 0.0
07/07:00am WSW 4 5 - - - - - - - 13.5 1005.2 0.0
07/06:30am SW 4 6 - - - - - - - 12.6 1005.0 0.0
07/06:00am SW 5 7 - - - - - - - 12.4 1005.0 0.0
07/05:30am SSW 4 5 - - - - - - - 12.2 1004.7 0.0
07/05:00am SW 3 7 - - - - - - - 11.3 1004.6 0.0
07/04:30am WNW 3 3 - - - - - - - 9.9 1004.5 0.0
07/04:00am NNW 2 3 - - - - - - - 10.4 1004.5 0.0
07/03:30am N 2 5 - - - - - - - 11.1 1004.8 0.0
07/03:00am WNW 2 2 - - - - - - - 11.5 1004.9 0.0
07/02:30am NW 1 2 - - - - - - - 11.9 1005.3 0.0
07/02:00am NW 1 1 - - - - - - - 12.2 1005.6 0.0
07/01:30am N 1 2 - - - - - - - 12.4 1005.9 0.0
07/01:00am N 3 3 - - - - - - - 12.7 1006.2 0.0
07/12:30am E 4 7 - - - - - - - 13.3 1006.3 0.0
07/12:00am E 4 6 - - - - - - - 13.4 1006.9 0.0
 
Date/Time
EDT
Wind Sea
Height
m
Swell Vis
km
Cloud Weather Temp
°C
Press
MSL
hPa
Rain since
9am
mm
Dir  Spd
kts
Gust
kts
Height
m
Period
s
Dir
06/11:30pm ESE 4 7 - - - - - - - 13.4 1007.2 0.0
06/11:00pm ESE 7 10 - - - - - - - 13.4 1006.9 0.0
06/10:30pm SE 6 9 - - - - - - - 13.4 1007.7 0.0
06/10:00pm SE 5 8 - - - - - - - 13.6 1008.0 0.0
06/09:30pm SE 6 9 - - - - - - - 14.0 1008.1 0.0
06/09:00pm SE 6 9 - - - - - - - 14.1 1008.1 0.0
06/08:30pm SE 7 10 - - - - - - - 14.1 1008.1 0.0
06/08:00pm SSE 7 10 - - - - - - - 14.6 1008.3 0.0
06/07:30pm SE 6 9 - - - - - - - 15.0 1008.4 0.0
06/07:00pm SSE 7 10 - - - - - - - 16.3 1008.4 0.0
06/06:30pm SSE 8 11 - - - - - - - 15.5 1008.4 0.0
06/06:00pm SSE 9 12 - - - - - - - 16.9 1008.4 0.0
06/05:30pm SSE 8 11 - - - - - - - 17.2 1008.7 0.0
06/05:00pm SSE 10 14 - - - - - - - 16.2 1008.9 0.0
06/04:30pm SSE 9 12 - - - - - - - 17.0 1009.6 0.0
06/04:00pm S 8 11 - - - - - - - 17.2 1009.7 0.0
06/03:30pm S 7 10 - - - - - - - 18.3 1010.2 0.0
06/03:00pm S 8 11 - - - - - - - 17.9 1010.4 0.0
06/02:30pm SSE 8 11 - - - - - - - 17.7 1010.4 0.0
06/02:00pm SSE 7 9 - - - - - - - 17.9 1010.9 0.0
06/01:30pm SSE 7 9 - - - - - - - 17.9 1011.3 0.0
06/01:00pm SE 8 11 - - - - - - - 17.4 1011.4 0.0
06/12:30pm SE 9 12 - - - - - - - 18.1 1011.8 0.0
06/12:00pm SE 9 13 - - - - - - - 17.3 1012.1 0.0
06/11:30am SSE 10 13 - - - - - - - 17.2 1012.3 0.0
06/11:00am SSE 10 14 - - - - - - - 16.9 1012.7 0.0
06/10:30am SSE 8 12 - - - - - - - 16.7 1013.1 0.0
06/10:00am SSE 9 12 - - - - - - - 16.2 1013.4 0.0
06/09:30am SSE 8 12 - - - - - - - 15.3 1013.8 0.0
06/09:00am SSE 8 11 - - - - - - - 14.6 1013.9 0.0
06/08:30am SSE 10 13 - - - - - - - 14.0 1013.4 0.0
06/08:00am SSE 12 16 - - - - - - - 13.5 1013.2 0.0
06/07:30am SSE 10 16 - - - - - - - 13.1 1013.5 0.0
06/07:00am SSE 9 14 - - - - - - - 12.8 1013.7 0.0
06/06:30am SSE 11 16 - - - - - - - 12.6 1013.6 0.0
06/06:00am SSE 8 11 - - - - - - - 12.6 1013.8 0.0
06/05:30am SSE 11 16 - - - - - - - 12.8 1013.5 0.0
06/05:00am SSE 11 17 - - - - - - - 12.9 1013.6 0.0
06/04:30am SSE 13 17 - - - - - - - 12.9 1013.8 0.0
06/04:00am S 11 17 - - - - - - - 13.1 1014.0 0.0
06/03:30am S 7 12 - - - - - - - 13.1 1014.3 0.0
06/03:00am SSE 9 14 - - - - - - - 12.9 1014.9 0.0
06/02:30am SSE 10 15 - - - - - - - 13.1 1015.0 0.0
06/02:00am SSE 13 18 - - - - - - - 13.2 1015.2 0.0
06/01:30am S 12 18 - - - - - - - 13.1 1015.5 0.0
06/01:00am SSE 9 14 - - - - - - - 13.0 1015.7 0.0
06/12:30am SSE 12 16 - - - - - - - 13.2 1015.8 0.0
06/12:00am SE 15 20 - - - - - - - 13.2 1015.9 0.0
 
Date/Time
EDT
Wind Sea
Height
m
Swell Vis
km
Cloud Weather Temp
°C
Press
MSL
hPa
Rain since
9am
mm
Dir  Spd
kts
Gust
kts
Height
m
Period
s
Dir
05/11:30pm SSE 14 19 - - - - - - - 13.4 1016.1 0.0
05/11:00pm SSE 15 20 - - - - - - - 13.3 1016.2 0.0
05/10:30pm SSE 14 21 - - - - - - - 13.2 1016.5 0.0
05/10:00pm SSE 15 19 - - - - - - - 13.1 1016.5 0.0
05/09:30pm SSE 17 23 - - - - - - - 13.4 1016.5 0.0
05/09:00pm SSE 15 21 - - - - - - - 13.5 1016.6 0.0
05/08:30pm SSE 15 20 - - - - - - - 13.7 1016.6 0.0
05/08:00pm S 14 20 - - - - - - - 13.7 1016.5 0.0
05/07:30pm S 13 19 - - - - - - - 14.0 1016.4 0.0
05/07:00pm S 13 18 - - - - - - - 13.9 1016.1 0.0
05/06:30pm S 12 18 - - - - - - - 14.2 1016.0 0.0
05/06:00pm S 13 20 - - - - - - - 14.6 1015.7 0.0
05/05:30pm S 12 18 - - - - - - - 15.1 1015.8 0.0
05/05:00pm S 14 20 - - - - - - - 15.6 1015.8 0.0
05/04:30pm S 13 19 - - - - - - - 15.2 1015.8 0.0
05/04:00pm S 12 19 - - - - - - - 16.1 1015.9 0.0
05/03:30pm S 12 20 - - - - - - - 16.4 1016.0 0.0
05/03:00pm S 12 17 - - - - - - - 15.6 1015.9 0.0
05/02:30pm SSW 14 22 - - - - - - - 16.3 1015.9 0.0
05/02:00pm S 13 19 - - - - - - - 17.1 1015.8 0.0
05/01:30pm S 14 20 - - - - - - - 15.5 1015.8 0.0
05/01:00pm S 13 19 - - - - - - - 15.8 1015.7 0.0
05/12:30pm S 13 21 - - - - - - - 15.8 1015.5 0.0
05/12:00pm S 16 25 - - - - - - - 15.1 1015.4 0.0
05/11:53am S 15 25 - - - - - - - 15.1 1015.3 0.0
05/11:30am S 16 24 - - - - - - - 14.7 1015.1 0.0
05/11:00am S 16 23 - - - - - - - 14.4 1014.7 0.0
05/10:30am S 17 25 - - - - - - - 14.1 1014.6 0.0
05/10:00am S 15 22 - - - - - - - 14.6 1014.3 0.0
05/09:30am S 15 24 - - - - - - - 14.8 1014.2 0.0
05/09:00am S 17 24 - - - - - - - 14.4 1013.9 0.0
05/08:30am S 15 25 - - - - - - - 14.3 1013.6 0.0
05/08:00am S 18 26 - - - - - - - 14.5 1013.2 0.0
05/07:30am S 18 26 - - - - - - - 14.0 1013.0 0.0
05/07:00am S 16 28 - - - - - - - 14.2 1012.6 0.0
05/06:59am S 16 28 - - - - - - - 14.4 1012.6 0.0
05/06:30am S 17 23 - - - - - - - 14.5 1012.4 0.0
05/06:08am S 18 28 - - - - - - - 14.4 1012.1 0.0
05/06:00am S 18 25 - - - - - - - 14.5 1011.9 0.0
05/05:31am S 15 28 - - - - - - - 14.8 1011.5 0.0
05/05:30am S 15 23 - - - - - - - 14.9 1011.5 0.0
05/05:00am S 15 26 - - - - - - - 14.4 1011.1 0.0
05/04:47am S 16 27 - - - - - - - 15.2 1010.9 0.0
05/04:30am S 17 24 - - - - - - - 14.8 1010.6 0.0
05/04:00am S 14 20 - - - - - - - 15.1 1010.4 0.0
05/03:31am S 18 28 - - - - - - - 14.7 1010.2 0.0
05/03:30am S 18 26 - - - - - - - 14.7 1010.2 0.0
05/03:20am SSW 18 29 - - - - - - - 14.9 1010.1 0.0
05/03:00am S 16 23 - - - - - - - 14.7 1010.1 0.0
05/02:30am SSW 17 25 - - - - - - - 14.4 1009.5 0.0
05/02:00am SSW 15 22 - - - - - - - 15.3 1009.3 0.0
05/01:30am SSW 16 22 - - - - - - - 15.6 1009.1 0.0
05/01:00am SW 17 23 - - - - - - - 15.8 1009.2 0.0
05/12:30am SW 14 18 - - - - - - - 16.2 1008.9 0.0
05/12:00am SW 12 16 - - - - - - - 16.1 1008.9 0.0
 
Date/Time
EDT
Wind Sea
Height
m
Swell Vis
km
Cloud Weather Temp
°C
Press
MSL
hPa
Rain since
9am
mm
Dir  Spd
kts
Gust
kts
Height
m
Period
s
Dir
04/11:30pm W 15 21 - - - - - - - 16.2 1008.9 0.0
04/11:00pm W 16 23 - - - - - - - 16.3 1008.5 0.0
04/10:30pm W 17 25 - - - - - - - 16.2 1008.2 0.0
04/10:26pm W 15 25 - - - - - - - 16.3 1008.2 0.0
04/10:00pm W 16 23 - - - - - - - 16.3 1007.9 0.0
04/09:30pm W 17 25 - - - - - - - 16.4 1007.7 0.0

Other formats

Comma delimited format used in spreadsheet applications
http://www.bom.gov.au/fwo/IDV60701/IDV60701.94830.axf

JavaScript Object Notation format (JSON) in row-major order
http://www.bom.gov.au/fwo/IDV60701/IDV60701.94830.json

Data quality

Most of these data are generated automatically and are frequently updated. Quality checks on data are not normally performed. It is possible for incorrect values to appear. Refer to information at About Latest Weather Observations and please check the disclaimer before using these data.